No particular awareness of the weather is required.    There are no Weather-warnings


Meteo18 Weather Cam more information Meteo18 Weather Cam


Thunder radar more information blitzortung!


Rain radar more information rain snow radar


Visit our other weather sites:

Template documentation
and downloads

And another site



Weather Underground History page Text

Daily Summary for June 27, 2017 Units:  English    Metric   Both
« Previous Day
Next Day »
Daily Weekly Monthly Yearly Custom
  High: Low: Average:
Temperature: TemperatureC °F 16.1 °F 20.1 °F
Dew Point: DewpointC °F 15.4 °F 17.2 °F
Humidity: Humidity % 64 % 84 %
Wind Speed: WindSpeedKMH mph 0.0 mph 4.7 mph
Wind Gust: WindSpeedGustKMH mph - -
Wind:- - SSW
Pressure: PressurehPa in 1002.9 in -
Precipitation: 2.3 in    
Historical Graphs
 
 
Tabular Data for June 27, 2017
Time Temperature Dew Point Pressure Wind Wind Speed Wind Gust Humidity Rainfall Rate (Hourly)
TemperatureC °F DewpointC °F PressurehPa in Calm     Humidity % HourlyPrecipMM in
00:02 17.9 °F 16.9 °F 1011.4 in Calm     94 % 0.0 in
00:12 17.9 °F 17.1 °F 1011.4 in Calm     95 % 0.0 in
00:17 17.8 °F 16.8 °F 1011.4 in Calm     94 % 0.0 in
00:22 17.8 °F 16.8 °F 1011.1 in Calm     94 % 0.0 in
00:32 17.7 °F 16.9 °F 1011.1 in Calm     95 % 0.0 in
00:42 17.6 °F 16.8 °F 1011.1 in Calm     95 % 0.0 in
00:52 17.4 °F 16.4 °F 1011.1 in Calm     94 % 0.0 in
00:57 17.4 °F 16.6 °F 1011.1 in Calm     95 % 0.0 in
01:02 17.3 °F 16.5 °F 1011.1 in Calm     95 % 0.0 in
01:12 17.3 °F 16.5 °F 1010.7 in Calm     95 % 0.0 in
01:17 17.3 °F 16.5 °F 1010.7 in Calm     95 % 0.0 in
01:22 17.3 °F 16.5 °F 1010.7 in Calm     95 % 0.0 in
01:27 17.2 °F 16.4 °F 1010.7 in Calm     95 % 0.0 in
01:32 17.1 °F 16.3 °F 1010.7 in Calm     95 % 0.0 in
01:37 17.1 °F 16.3 °F 1010.7 in Calm     95 % 0.0 in
01:42 17.0 °F 16.2 °F 1010.7 in Calm     95 % 0.0 in
01:52 16.9 °F 16.3 °F 1010.7 in Calm     96 % 0.0 in
01:57 17.1 °F 16.5 °F 1010.7 in Calm     96 % 0.0 in
02:02 17.3 °F 16.7 °F 1010.4 in NNE 3.2 mph   96 % 0.0 in
02:12 16.6 °F 15.6 °F 1010.4 in Calm   3.2 mph 94 % 0.0 in
02:17 16.6 °F 16.0 °F 1010.4 in Calm   3.2 mph 96 % 0.0 in
02:22 16.6 °F 15.8 °F 1010.4 in Calm   3.2 mph 95 % 0.0 in
02:27 16.6 °F 16.0 °F 1010.4 in Calm   3.2 mph 96 % 0.0 in
02:32 16.6 °F 15.8 °F 1010.4 in Calm   3.2 mph 95 % 0.0 in
02:37 16.5 °F 15.7 °F 1010.0 in Calm     95 % 0.0 in
02:42 16.4 °F 15.6 °F 1010.0 in Calm     95 % 0.0 in
02:47 16.3 °F 15.5 °F 1010.0 in Calm     95 % 0.0 in
02:52 16.2 °F 15.6 °F 1010.0 in Calm     96 % 0.0 in
02:57 16.3 °F 15.7 °F 1010.0 in Calm     96 % 0.0 in
03:02 16.3 °F 15.7 °F 1010.0 in Calm     96 % 0.0 in
03:12 16.2 °F 15.6 °F 1010.4 in WNW 3.2 mph   96 % 0.0 in
03:17 16.1 °F 15.5 °F 1010.4 in Calm   4.8 mph 96 % 0.0 in
03:22 16.2 °F 15.6 °F 1010.4 in Calm   4.8 mph 96 % 0.0 in
03:27 16.2 °F 15.6 °F 1010.4 in Calm   4.8 mph 96 % 0.0 in
03:32 16.2 °F 15.6 °F 1010.0 in Calm   4.8 mph 96 % 0.0 in
03:42 16.3 °F 15.7 °F 1010.0 in Calm   1.6 mph 96 % 0.0 in
03:47 16.3 °F 15.7 °F 1010.0 in NE 1.6 mph   96 % 0.0 in
03:52 16.3 °F 15.7 °F 1010.0 in Calm     96 % 0.0 in
04:02 16.3 °F 15.7 °F 1009.7 in NNE 3.2 mph 3.2 mph 96 % 0.0 in
04:12 16.1 °F 15.5 °F 1009.7 in Calm   4.8 mph 96 % 0.0 in
04:17 16.1 °F 15.5 °F 1009.7 in Calm   4.8 mph 96 % 0.0 in
04:22 16.1 °F 15.5 °F 1009.7 in Calm   4.8 mph 96 % 0.0 in
04:32 16.1 °F 15.5 °F 1009.7 in Calm     96 % 0.0 in
04:42 16.1 °F 15.5 °F 1009.7 in Calm     96 % 0.0 in
04:47 16.2 °F 15.6 °F 1009.7 in Calm     96 % 0.0 in
04:52 16.3 °F 15.7 °F 1009.4 in Calm     96 % 0.0 in
04:57 16.4 °F 15.8 °F 1009.7 in Calm     96 % 0.0 in
05:02 16.4 °F 15.8 °F 1009.7 in Calm     96 % 0.0 in
05:07 16.4 °F 15.8 °F 1009.7 in Calm     96 % 0.0 in
05:12 16.4 °F 15.8 °F 1009.4 in Calm     96 % 0.0 in
05:17 16.5 °F 15.9 °F 1009.4 in Calm     96 % 0.0 in
05:22 16.7 °F 16.2 °F 1009.4 in Calm     97 % 0.0 in
05:32 16.7 °F 16.1 °F 1009.4 in Calm     96 % 0.0 in
05:42 16.7 °F 16.1 °F 1009.4 in Calm     96 % 0.0 in
05:47 16.7 °F 16.1 °F 1009.4 in Calm     96 % 0.0 in
05:52 16.8 °F 16.2 °F 1009.4 in Calm     96 % 0.0 in
06:02 16.7 °F 16.1 °F 1009.4 in Calm     96 % 0.0 in
06:12 16.6 °F 16.0 °F 1009.4 in Calm     96 % 0.0 in
06:17 16.6 °F 16.0 °F 1009.4 in Calm     96 % 0.0 in
06:22 16.6 °F 16.0 °F 1009.4 in Calm     96 % 0.0 in
06:32 16.5 °F 15.9 °F 1009.4 in Calm     96 % 0.0 in
06:42 16.4 °F 15.8 °F 1009.4 in Calm     96 % 0.0 in
06:47 16.4 °F 15.8 °F 1009.4 in Calm     96 % 0.0 in
06:52 16.4 °F 15.8 °F 1009.4 in Calm     96 % 0.0 in
06:57 16.4 °F 15.8 °F 1009.4 in Calm     96 % 0.0 in
07:02 16.3 °F 15.7 °F 1009.4 in Calm     96 % 0.0 in
07:12 16.3 °F 15.7 °F 1009.4 in Calm     96 % 0.0 in
07:17 16.3 °F 15.8 °F 1009.4 in Calm     97 % 0.0 in
07:22 16.4 °F 15.9 °F 1009.4 in Calm     97 % 0.0 in
07:32 16.6 °F 16.0 °F 1009.4 in SSW 1.6 mph   96 % 0.0 in
07:37 16.8 °F 16.3 °F 1009.4 in Calm   3.2 mph 97 % 0.0 in
07:42 17.1 °F 16.6 °F 1009.0 in Calm   3.2 mph 97 % 0.0 in
07:47 17.3 °F 16.7 °F 1009.4 in SSW 1.6 mph 3.2 mph 96 % 0.0 in
07:52 17.4 °F 16.8 °F 1009.0 in SSW 1.6 mph 3.2 mph 96 % 0.0 in
08:02 17.7 °F 17.1 °F 1009.4 in WSW 8.0 mph 8.0 mph 96 % 0.0 in
08:07 17.9 °F 17.3 °F 1009.4 in SW 6.4 mph 12.9 mph 96 % 0.0 in
08:12 18.2 °F 17.6 °F 1009.4 in South 4.8 mph 12.9 mph 96 % 0.0 in
08:17 18.3 °F 17.5 °F 1009.4 in SSW 3.2 mph 12.9 mph 95 % 0.0 in
08:22 18.5 °F 17.5 °F 1009.4 in SSW 3.2 mph 12.9 mph 94 % 0.0 in
08:32 18.9 °F 17.7 °F 1009.0 in SW 4.8 mph 12.9 mph 93 % 0.0 in
08:42 19.3 °F 17.8 °F 1009.0 in SW 6.4 mph 11.3 mph 91 % 0.0 in
08:47 19.6 °F 18.3 °F 1009.0 in SW 6.4 mph 9.7 mph 92 % 0.0 in
08:52 19.8 °F 18.3 °F 1009.0 in SSW 4.8 mph 9.7 mph 91 % 0.0 in
09:02 19.9 °F 17.9 °F 1009.0 in SW 8.0 mph 9.7 mph 88 % 0.0 in
09:12 20.2 °F 18.0 °F 1009.0 in SSW 3.2 mph 14.5 mph 87 % 0.3 in
09:17 20.4 °F 17.8 °F 1009.0 in SSW 9.7 mph 17.7 mph 85 % 0.3 in
09:22 20.4 °F 17.8 °F 1009.0 in SW 11.3 mph 17.7 mph 85 % 0.3 in
09:32 20.6 °F 18.0 °F 1009.0 in South 9.7 mph 17.7 mph 85 % 0.3 in
09:37 20.7 °F 18.1 °F 1009.0 in SSE 6.4 mph 16.1 mph 85 % 0.3 in
09:42 20.6 °F 17.6 °F 1009.0 in SW 4.8 mph 16.1 mph 83 % 0.3 in
09:52 20.9 °F 17.9 °F 1009.0 in SSW 4.8 mph 16.1 mph 83 % 0.3 in
10:02 21.1 °F 17.9 °F 1009.0 in SSW 12.9 mph 14.5 mph 82 % 0.3 in
10:12 21.4 °F 18.2 °F 1009.0 in South 4.8 mph 12.9 mph 82 % 0.0 in
10:17 21.7 °F 18.1 °F 1009.0 in SSW 11.3 mph 17.7 mph 80 % 0.0 in
10:22 21.7 °F 17.7 °F 1008.7 in SSW 14.5 mph 17.7 mph 78 % 0.0 in
10:32 22.1 °F 17.9 °F 1008.7 in SW 6.4 mph 17.7 mph 77 % 0.0 in
10:42 22.5 °F 17.8 °F 1008.7 in SW 11.3 mph 17.7 mph 75 % 0.0 in
10:47 22.6 °F 17.9 °F 1008.7 in SW 3.2 mph 16.1 mph 75 % 0.0 in
10:52 22.9 °F 17.8 °F 1008.7 in SE 6.4 mph 16.1 mph 73 % 0.0 in
10:57 23.1 °F 18.2 °F 1008.7 in SSE 8.0 mph 17.7 mph 74 % 0.0 in
11:02 23.2 °F 17.6 °F 1008.7 in SW 14.5 mph 17.7 mph 71 % 0.0 in
11:12 23.4 °F 18.1 °F 1008.4 in WSW 8.0 mph 22.5 mph 72 % 0.0 in
11:17 23.5 °F 18.2 °F 1008.4 in WSW 16.1 mph 22.5 mph 72 % 0.0 in
11:22 23.3 °F 17.7 °F 1008.4 in SW 8.0 mph 22.5 mph 71 % 0.0 in
11:32 23.2 °F 17.6 °F 1008.4 in SSW 8.0 mph 20.9 mph 71 % 0.0 in
11:37 23.2 °F 17.6 °F 1008.4 in WSW 11.3 mph 19.3 mph 71 % 0.0 in
11:42 23.2 °F 17.6 °F 1008.4 in SW 9.7 mph 19.3 mph 71 % 0.0 in
11:47 23.2 °F 17.2 °F 1008.4 in SW 11.3 mph 20.9 mph 69 % 0.0 in
11:52 23.1 °F 17.1 °F 1008.4 in WSW 3.2 mph 20.9 mph 69 % 0.0 in
12:02 23.3 °F 17.3 °F 1008.4 in WSW 9.7 mph 20.9 mph 69 % 0.0 in
12:12 23.4 °F 17.4 °F 1008.0 in SW 11.3 mph 16.1 mph 69 % 0.0 in
12:17 23.2 °F 17.2 °F 1008.0 in SSW 6.4 mph 17.7 mph 69 % 0.0 in
12:22 23.2 °F 17.2 °F 1008.0 in SW 8.0 mph 17.7 mph 69 % 0.0 in
12:32 23.3 °F 18.0 °F 1008.0 in SSW 4.8 mph 22.5 mph 72 % 0.0 in
12:37 23.2 °F 18.1 °F 1008.0 in SSW 8.0 mph 22.5 mph 73 % 0.0 in
12:42 23.2 °F 18.1 °F 1008.0 in SSW 12.9 mph 17.7 mph 73 % 0.0 in
12:47 23.3 °F 18.4 °F 1008.0 in South 12.9 mph 17.7 mph 74 % 0.0 in
12:52 23.3 °F 18.2 °F 1008.0 in WSW 12.9 mph 17.7 mph 73 % 0.0 in
12:57 23.4 °F 18.5 °F 1008.0 in SSW 6.4 mph 19.3 mph 74 % 0.0 in
13:02 23.3 °F 18.2 °F 1007.7 in SW 3.2 mph 19.3 mph 73 % 0.0 in
13:12 22.9 °F 18.2 °F 1007.7 in SE 1.6 mph 14.5 mph 75 % 0.0 in
13:17 22.8 °F 17.9 °F 1007.7 in SSW 4.8 mph 14.5 mph 74 % 0.0 in
13:27 22.9 °F 18.4 °F 1007.3 in SW 1.6 mph 12.9 mph 76 % 0.0 in
13:32 23.5 °F 18.6 °F 1007.3 in South 9.7 mph 12.9 mph 74 % 0.0 in
13:42 23.9 °F 17.6 °F 1007.3 in SW 8.0 mph 17.7 mph 68 % 0.0 in
13:47 24.0 °F 18.4 °F 1007.3 in SSW 14.5 mph 17.7 mph 71 % 0.0 in
13:52 24.1 °F 18.3 °F 1007.3 in SW 8.0 mph 16.1 mph 70 % 0.0 in
13:57 24.6 °F 18.5 °F 1007.0 in SSE 3.2 mph 16.1 mph 69 % 0.0 in
14:02 25.1 °F 18.1 °F 1007.0 in South 9.7 mph 17.7 mph 65 % 0.0 in
14:12 24.8 °F 17.5 °F 1006.7 in SW 4.8 mph 19.3 mph 64 % 0.0 in
14:17 24.7 °F 17.7 °F 1006.7 in SSE 4.8 mph 19.3 mph 65 % 0.0 in
14:22 24.7 °F 17.7 °F 1006.7 in WSW 3.2 mph 19.3 mph 65 % 0.0 in
14:27 24.4 °F 17.9 °F 1006.7 in West 4.8 mph 11.3 mph 67 % 0.0 in
14:32 22.8 °F 18.3 °F 1006.7 in West 16.1 mph 16.1 mph 76 % 0.0 in
14:37 21.7 °F 18.3 °F 1006.7 in NW 4.8 mph 30.6 mph 81 % 0.8 in
14:42 21.3 °F 18.1 °F 1006.7 in WNW 1.6 mph 30.6 mph 82 % 0.8 in
14:47 21.1 °F 18.3 °F 1006.7 in WNW 6.4 mph 30.6 mph 84 % 1.0 in
14:52 20.7 °F 18.5 °F 1006.7 in WNW 3.2 mph 20.9 mph 87 % 1.0 in
14:57 20.7 °F 18.5 °F 1006.7 in Calm   12.9 mph 87 % 2.3 in
15:02 21.1 °F 19.2 °F 1006.3 in NE 1.6 mph 12.9 mph 89 % 2.3 in
15:12 21.8 °F 19.5 °F 1006.3 in NNE 3.2 mph 8.0 mph 87 % 2.3 in
15:17 22.1 °F 19.1 °F 1006.3 in Calm   6.4 mph 83 % 2.3 in
15:27 22.6 °F 19.9 °F 1006.3 in NE 4.8 mph 6.4 mph 85 % 2.0 in
15:32 22.4 °F 19.2 °F 1006.0 in NNE 1.6 mph 6.4 mph 82 % 2.0 in
15:37 22.7 °F 19.5 °F 1006.0 in NE 6.4 mph 8.0 mph 82 % 1.5 in
15:42 23.2 °F 19.4 °F 1006.0 in ENE 3.2 mph 8.0 mph 79 % 1.5 in
15:47 23.7 °F 20.0 °F 1006.0 in NE 1.6 mph 9.7 mph 80 % 1.3 in
15:52 23.9 °F 19.4 °F 1005.6 in NE 3.2 mph 9.7 mph 76 % 1.3 in
15:57 23.9 °F 19.2 °F 1005.6 in NE 3.2 mph 9.7 mph 75 % 0.0 in
16:02 24.0 °F 19.5 °F 1005.6 in ENE 3.2 mph 9.7 mph 76 % 0.0 in
16:12 24.7 °F 18.9 °F 1005.6 in SW 1.6 mph 9.7 mph 70 % 0.0 in
16:17 25.1 °F 19.2 °F 1005.6 in Calm   8.0 mph 70 % 0.0 in
16:22 25.0 °F 19.1 °F 1005.3 in East 9.7 mph 9.7 mph 70 % 0.0 in
16:32 24.7 °F 18.9 °F 1005.3 in East 4.8 mph 11.3 mph 70 % 0.0 in
16:37 24.6 °F 18.8 °F 1005.3 in ENE 8.0 mph 11.3 mph 70 % 0.0 in
16:42 24.7 °F 19.1 °F 1005.3 in East 3.2 mph 11.3 mph 71 % 0.0 in
16:52 24.8 °F 19.0 °F 1005.3 in NE 3.2 mph 9.7 mph 70 % 0.0 in
16:57 24.8 °F 19.0 °F 1005.3 in ENE 8.0 mph 11.3 mph 70 % 0.0 in
17:02 24.8 °F 19.0 °F 1005.0 in ENE 8.0 mph 11.3 mph 70 % 0.0 in
17:12 24.8 °F 19.0 °F 1005.0 in East 8.0 mph 11.3 mph 70 % 0.0 in
17:17 24.7 °F 18.9 °F 1005.0 in East 3.2 mph 11.3 mph 70 % 0.0 in
17:22 24.7 °F 18.6 °F 1004.6 in ENE 3.2 mph 11.3 mph 69 % 0.0 in
17:27 24.8 °F 19.0 °F 1004.6 in Calm   9.7 mph 70 % 0.0 in
17:32 24.7 °F 19.1 °F 1004.6 in West 4.8 mph 9.7 mph 71 % 0.0 in
17:37 24.7 °F 18.9 °F 1004.6 in SW 1.6 mph 6.4 mph 70 % 0.0 in
17:42 24.7 °F 18.9 °F 1004.6 in WSW 4.8 mph 6.4 mph 70 % 0.0 in
17:47 24.7 °F 19.3 °F 1004.3 in Calm   6.4 mph 72 % 0.0 in
17:57 24.6 °F 19.0 °F 1004.3 in West 3.2 mph 9.7 mph 71 % 0.0 in
18:07 24.2 °F 17.9 °F 1004.3 in SW 8.0 mph 19.3 mph 68 % 0.0 in
18:17 24.1 °F 17.1 °F 1004.3 in West 6.4 mph 19.3 mph 65 % 0.0 in
18:27 24.1 °F 16.9 °F 1004.3 in SW 9.7 mph 24.1 mph 64 % 0.0 in
18:32 24.2 °F 17.0 °F 1004.3 in West 11.3 mph 25.7 mph 64 % 0.0 in
18:37 24.1 °F 17.1 °F 1003.9 in WSW 16.1 mph 25.7 mph 65 % 0.0 in
18:42 23.8 °F 17.3 °F 1003.9 in SW 4.8 mph 32.2 mph 67 % 0.0 in
18:52 23.2 °F 17.0 °F 1003.9 in SW 22.5 mph 32.2 mph 68 % 0.0 in
18:57 23.0 °F 17.0 °F 1003.9 in West 6.4 mph 25.7 mph 69 % 0.0 in
19:02 22.7 °F 16.9 °F 1003.6 in WSW 20.9 mph 25.7 mph 70 % 0.0 in
19:07 22.4 °F 17.3 °F 1003.3 in West 8.0 mph 25.7 mph 73 % 0.0 in
19:12 22.0 °F 17.4 °F 1003.3 in West 9.7 mph 25.7 mph 75 % 0.0 in
19:17 21.8 °F 17.4 °F 1002.9 in Calm   24.1 mph 76 % 0.0 in
19:22 21.7 °F 17.3 °F 1002.9 in NW 3.2 mph 24.1 mph 76 % 0.0 in
19:32 21.6 °F 17.4 °F 1002.9 in Calm   12.9 mph 77 % 0.0 in
19:42 21.4 °F 17.4 °F 1003.3 in Calm   6.4 mph 78 % 0.0 in
19:52 21.3 °F 17.3 °F 1003.3 in Calm   6.4 mph 78 % 0.0 in
20:02 21.3 °F 17.3 °F 1003.3 in Calm   6.4 mph 78 % 0.0 in
20:12 21.2 °F 17.4 °F 1003.6 in Calm   4.8 mph 79 % 0.0 in
20:17 21.1 °F 17.7 °F 1003.6 in Calm   4.8 mph 81 % 0.0 in
20:22 20.9 °F 17.5 °F 1003.9 in East 8.0 mph 8.0 mph 81 % 0.0 in
20:27 20.7 °F 17.7 °F 1003.9 in SSE 3.2 mph 11.3 mph 83 % 0.0 in
20:37 20.4 °F 17.8 °F 1004.3 in SW 1.6 mph 11.3 mph 85 % 0.0 in
20:42 20.3 °F 17.7 °F 1004.3 in SSW 3.2 mph 11.3 mph 85 % 0.0 in
20:47 20.2 °F 17.8 °F 1004.3 in SSW 6.4 mph 8.0 mph 86 % 0.0 in
20:52 20.1 °F 17.9 °F 1004.3 in SW 9.7 mph 9.7 mph 87 % 0.0 in
20:57 20.1 °F 17.9 °F 1004.3 in SW 8.0 mph 16.1 mph 87 % 0.0 in
21:02 19.9 °F 17.9 °F 1004.3 in SW 12.9 mph 16.1 mph 88 % 0.0 in
21:12 19.7 °F 17.8 °F 1004.3 in SSW 4.8 mph 16.1 mph 89 % 0.0 in
21:22 19.5 °F 17.6 °F 1004.6 in SSW 11.3 mph 14.5 mph 89 % 0.0 in
21:32 19.4 °F 17.7 °F 1005.0 in SW 11.3 mph 20.9 mph 90 % 0.0 in
21:37 19.3 °F 17.6 °F 1005.0 in SW 17.7 mph 17.7 mph 90 % 0.0 in
21:47 19.3 °F 17.8 °F 1004.6 in SSW 12.9 mph 17.7 mph 91 % 0.0 in
21:52 19.3 °F 17.8 °F 1004.6 in SW 8.0 mph 17.7 mph 91 % 0.0 in
22:02 19.2 °F 17.5 °F 1003.9 in SSW 8.0 mph 17.7 mph 90 % 0.0 in
22:12 19.1 °F 17.4 °F 1003.9 in SW 9.7 mph 17.7 mph 90 % 0.0 in
22:17 19.1 °F 17.4 °F 1003.9 in SSW 6.4 mph 16.1 mph 90 % 0.0 in
22:22 19.0 °F 17.3 °F 1004.3 in SW 4.8 mph 16.1 mph 90 % 0.0 in
22:27 18.9 °F 17.2 °F 1004.3 in SW 8.0 mph 16.1 mph 90 % 0.0 in
22:32 18.9 °F 17.2 °F 1004.3 in SSE 9.7 mph 16.1 mph 90 % 0.0 in
22:37 18.9 °F 17.2 °F 1004.6 in South 8.0 mph 12.9 mph 90 % 0.0 in
22:42 18.9 °F 17.0 °F 1004.6 in SSW 8.0 mph 12.9 mph 89 % 0.0 in
22:52 18.8 °F 16.8 °F 1005.0 in SW 9.7 mph 12.9 mph 88 % 0.0 in
22:57 18.8 °F 16.4 °F 1005.0 in SW 14.5 mph 19.3 mph 86 % 0.0 in
23:02 18.8 °F 16.2 °F 1005.0 in SW 11.3 mph 19.3 mph 85 % 0.0 in
23:12 18.8 °F 16.2 °F 1004.6 in WSW 14.5 mph 20.9 mph 85 % 0.0 in
23:17 18.8 °F 16.4 °F 1004.6 in SW 14.5 mph 25.7 mph 86 % 0.0 in
23:22 18.7 °F 16.3 °F 1004.6 in South 8.0 mph 25.7 mph 86 % 0.0 in
23:27 18.6 °F 16.2 °F 1004.3 in SW 14.5 mph 24.1 mph 86 % 0.0 in
23:32 18.5 °F 16.1 °F 1004.6 in South 8.0 mph 24.1 mph 86 % 0.0 in
23:37 18.4 °F 16.0 °F 1004.6 in SW 6.4 mph 17.7 mph 86 % 0.0 in
23:42 18.4 °F 15.8 °F 1004.6 in SW 9.7 mph 17.7 mph 85 % 0.0 in
23:47 18.4 °F 15.6 °F 1004.6 in SSW 3.2 mph 17.7 mph 84 % 0.0 in
23:52 18.4 °F 15.5 °F 1004.6 in SSW 8.0 mph 17.7 mph 83 % 0.0 in
23:57 18.3 °F 15.4 °F 1004.6 in WSW 16.1 mph 19.3 mph 83 % 0.0 in
Meteo18
Compliments of Weather Underground - 4 mb

Script developed by  Jim McMurry - jmcmurry@mwt.net Adapted for the template by  Wim van der Kuil - Leuven-Template.eu

You find our weather info also at:

European Weather Network

Weather Underground

Equipment we use:

Weather-station
Davis Vue

Weather-program
Meteobridge

Weather-server
Raspberry PI 2 B+

Provider
1 and 1

Davis Vue

Meteobridge

Raspberry PI 2 B+

1 and 1